sensor_id;sensor_type;location;lat;lon;timestamp;P1;durP1;ratioP1;P2;durP2;ratioP2
81523;SDS011;70954;49.500;10.416;2023-07-20T00:01:59;3.88;;;1.90;;
81523;SDS011;70954;49.500;10.416;2023-07-20T00:04:24;5.75;;;1.90;;
81523;SDS011;70954;49.500;10.416;2023-07-20T00:06:50;2.78;;;1.70;;
81523;SDS011;70954;49.500;10.416;2023-07-20T00:09:15;3.22;;;1.92;;
81523;SDS011;70954;49.500;10.416;2023-07-20T00:11:47;3.58;;;1.80;;
81523;SDS011;70954;49.500;10.416;2023-07-20T00:14:14;6.72;;;2.38;;
81523;SDS011;70954;49.500;10.416;2023-07-20T00:16:40;5.57;;;2.20;;
81523;SDS011;70954;49.500;10.416;2023-07-20T00:19:05;3.28;;;2.17;;
81523;SDS011;70954;49.500;10.416;2023-07-20T00:21:30;4.15;;;1.98;;
81523;SDS011;70954;49.500;10.416;2023-07-20T00:23:56;3.53;;;2.28;;
81523;SDS011;70954;49.500;10.416;2023-07-20T00:26:21;3.45;;;2.03;;
81523;SDS011;70954;49.500;10.416;2023-07-20T00:28:48;5.32;;;2.00;;
81523;SDS011;70954;49.500;10.416;2023-07-20T00:31:15;5.10;;;2.00;;
81523;SDS011;70954;49.500;10.416;2023-07-20T00:33:40;4.82;;;2.00;;
81523;SDS011;70954;49.500;10.416;2023-07-20T00:36:06;3.50;;;1.90;;
81523;SDS011;70954;49.500;10.416;2023-07-20T00:38:31;5.85;;;2.03;;
81523;SDS011;70954;49.500;10.416;2023-07-20T00:40:57;1.98;;;1.58;;
81523;SDS011;70954;49.500;10.416;2023-07-20T00:43:22;4.65;;;2.03;;
81523;SDS011;70954;49.500;10.416;2023-07-20T00:45:47;4.43;;;1.83;;
81523;SDS011;70954;49.500;10.416;2023-07-20T00:48:13;5.90;;;2.30;;
81523;SDS011;70954;49.500;10.416;2023-07-20T00:50:39;3.03;;;2.05;;
81523;SDS011;70954;49.500;10.416;2023-07-20T00:53:05;5.63;;;1.95;;
81523;SDS011;70954;49.500;10.416;2023-07-20T00:55:32;3.95;;;1.95;;
81523;SDS011;70954;49.500;10.416;2023-07-20T00:57:58;4.68;;;2.38;;
81523;SDS011;70954;49.500;10.416;2023-07-20T01:00:24;4.18;;;1.80;;
81523;SDS011;70954;49.500;10.416;2023-07-20T01:02:50;6.53;;;2.03;;
81523;SDS011;70954;49.500;10.416;2023-07-20T01:05:16;5.45;;;2.40;;
81523;SDS011;70954;49.500;10.416;2023-07-20T01:10:33;4.18;;;2.10;;
81523;SDS011;70954;49.500;10.416;2023-07-20T01:13:09;8.95;;;2.55;;
81523;SDS011;70954;49.500;10.416;2023-07-20T01:15:35;5.03;;;2.30;;
81523;SDS011;70954;49.500;10.416;2023-07-20T01:18:01;4.90;;;1.88;;
81523;SDS011;70954;49.500;10.416;2023-07-20T01:20:26;4.90;;;2.10;;
81523;SDS011;70954;49.500;10.416;2023-07-20T01:28:42;5.75;;;1.90;;
81523;SDS011;70954;49.500;10.416;2023-07-20T01:31:32;8.52;;;2.22;;
81523;SDS011;70954;49.500;10.416;2023-07-20T01:34:00;3.38;;;1.98;;
81523;SDS011;70954;49.500;10.416;2023-07-20T01:36:27;5.45;;;2.03;;
81523;SDS011;70954;49.500;10.416;2023-07-20T01:38:55;5.97;;;2.03;;
81523;SDS011;70954;49.500;10.416;2023-07-20T01:41:21;5.35;;;2.25;;
81523;SDS011;70954;49.500;10.416;2023-07-20T01:43:47;5.43;;;2.30;;
81523;SDS011;70954;49.500;10.416;2023-07-20T01:46:13;5.28;;;2.35;;
81523;SDS011;70954;49.500;10.416;2023-07-20T01:48:39;2.70;;;2.08;;
81523;SDS011;70954;49.500;10.416;2023-07-20T01:51:04;5.63;;;2.22;;
81523;SDS011;70954;49.500;10.416;2023-07-20T01:53:30;4.03;;;2.47;;
81523;SDS011;70954;49.500;10.416;2023-07-20T01:55:56;5.25;;;2.30;;
81523;SDS011;70954;49.500;10.416;2023-07-20T01:58:22;5.57;;;2.30;;
81523;SDS011;70954;49.500;10.416;2023-07-20T02:00:47;5.03;;;2.00;;
81523;SDS011;70954;49.500;10.416;2023-07-20T02:03:13;2.53;;;1.80;;
81523;SDS011;70954;49.500;10.416;2023-07-20T02:05:39;3.83;;;1.90;;
81523;SDS011;70954;49.500;10.416;2023-07-20T02:08:04;6.75;;;1.92;;
81523;SDS011;70954;49.500;10.416;2023-07-20T02:10:30;2.60;;;2.03;;
81523;SDS011;70954;49.500;10.416;2023-07-20T02:12:55;3.17;;;1.80;;
81523;SDS011;70954;49.500;10.416;2023-07-20T02:15:21;3.50;;;2.00;;
81523;SDS011;70954;49.500;10.416;2023-07-20T02:17:47;6.13;;;1.88;;
81523;SDS011;70954;49.500;10.416;2023-07-20T02:20:13;3.28;;;1.88;;
81523;SDS011;70954;49.500;10.416;2023-07-20T02:22:38;3.90;;;1.85;;
81523;SDS011;70954;49.500;10.416;2023-07-20T02:25:05;4.25;;;1.83;;
81523;SDS011;70954;49.500;10.416;2023-07-20T02:27:31;2.75;;;2.00;;
81523;SDS011;70954;49.500;10.416;2023-07-20T02:29:56;4.65;;;1.90;;
81523;SDS011;70954;49.500;10.416;2023-07-20T02:32:22;4.25;;;1.85;;
81523;SDS011;70954;49.500;10.416;2023-07-20T02:34:47;3.33;;;1.88;;
81523;SDS011;70954;49.500;10.416;2023-07-20T02:37:13;3.67;;;1.70;;
81523;SDS011;70954;49.500;10.416;2023-07-20T02:39:39;5.15;;;1.88;;
81523;SDS011;70954;49.500;10.416;2023-07-20T02:42:04;2.83;;;2.00;;
81523;SDS011;70954;49.500;10.416;2023-07-20T02:44:30;3.00;;;1.75;;
81523;SDS011;70954;49.500;10.416;2023-07-20T02:46:56;3.38;;;1.90;;
81523;SDS011;70954;49.500;10.416;2023-07-20T02:49:21;3.70;;;1.80;;
81523;SDS011;70954;49.500;10.416;2023-07-20T02:51:47;2.00;;;1.63;;
81523;SDS011;70954;49.500;10.416;2023-07-20T02:54:12;3.08;;;1.70;;
81523;SDS011;70954;49.500;10.416;2023-07-20T02:56:38;5.07;;;2.00;;
81523;SDS011;70954;49.500;10.416;2023-07-20T02:59:03;4.45;;;1.80;;
81523;SDS011;70954;49.500;10.416;2023-07-20T03:01:29;2.40;;;1.90;;
81523;SDS011;70954;49.500;10.416;2023-07-20T03:03:55;3.50;;;1.55;;
81523;SDS011;70954;49.500;10.416;2023-07-20T03:06:20;3.72;;;1.85;;
81523;SDS011;70954;49.500;10.416;2023-07-20T03:08:46;3.33;;;1.73;;
81523;SDS011;70954;49.500;10.416;2023-07-20T03:11:11;4.03;;;1.80;;
81523;SDS011;70954;49.500;10.416;2023-07-20T03:13:37;4.45;;;1.75;;
81523;SDS011;70954;49.500;10.416;2023-07-20T03:16:02;3.38;;;1.77;;
81523;SDS011;70954;49.500;10.416;2023-07-20T03:18:28;3.22;;;1.60;;
81523;SDS011;70954;49.500;10.416;2023-07-20T03:20:53;2.50;;;1.80;;
81523;SDS011;70954;49.500;10.416;2023-07-20T03:23:19;4.40;;;1.80;;
81523;SDS011;70954;49.500;10.416;2023-07-20T03:25:44;3.63;;;1.73;;
81523;SDS011;70954;49.500;10.416;2023-07-20T03:28:10;3.25;;;1.80;;
81523;SDS011;70954;49.500;10.416;2023-07-20T03:30:35;4.13;;;2.00;;
81523;SDS011;70954;49.500;10.416;2023-07-20T03:33:01;2.85;;;1.60;;
81523;SDS011;70954;49.500;10.416;2023-07-20T03:35:26;6.15;;;1.85;;
81523;SDS011;70954;49.500;10.416;2023-07-20T03:37:52;3.17;;;1.70;;
81523;SDS011;70954;49.500;10.416;2023-07-20T03:40:17;4.97;;;2.00;;
81523;SDS011;70954;49.500;10.416;2023-07-20T03:42:42;3.72;;;1.70;;
81523;SDS011;70954;49.500;10.416;2023-07-20T03:45:08;4.38;;;1.80;;
81523;SDS011;70954;49.500;10.416;2023-07-20T03:47:34;4.88;;;1.90;;
81523;SDS011;70954;49.500;10.416;2023-07-20T03:49:59;2.75;;;1.90;;
81523;SDS011;70954;49.500;10.416;2023-07-20T03:52:25;3.25;;;1.50;;
81523;SDS011;70954;49.500;10.416;2023-07-20T03:54:50;9.48;;;2.25;;
81523;SDS011;70954;49.500;10.416;2023-07-20T03:57:16;4.28;;;1.90;;
81523;SDS011;70954;49.500;10.416;2023-07-20T03:59:44;5.15;;;2.08;;
81523;SDS011;70954;49.500;10.416;2023-07-20T04:02:10;3.33;;;1.80;;
81523;SDS011;70954;49.500;10.416;2023-07-20T04:04:36;2.55;;;1.83;;
81523;SDS011;70954;49.500;10.416;2023-07-20T04:07:01;2.20;;;1.92;;
81523;SDS011;70954;49.500;10.416;2023-07-20T04:09:27;3.00;;;1.90;;
81523;SDS011;70954;49.500;10.416;2023-07-20T04:11:52;3.28;;;1.90;;
81523;SDS011;70954;49.500;10.416;2023-07-20T04:14:18;4.05;;;1.88;;
81523;SDS011;70954;49.500;10.416;2023-07-20T04:16:45;2.85;;;1.58;;
81523;SDS011;70954;49.500;10.416;2023-07-20T04:19:12;5.20;;;2.08;;
81523;SDS011;70954;49.500;10.416;2023-07-20T04:21:40;7.30;;;2.00;;
81523;SDS011;70954;49.500;10.416;2023-07-20T04:24:06;4.40;;;1.80;;
81523;SDS011;70954;49.500;10.416;2023-07-20T04:26:32;4.68;;;1.80;;
81523;SDS011;70954;49.500;10.416;2023-07-20T04:28:57;2.85;;;1.70;;
81523;SDS011;70954;49.500;10.416;2023-07-20T04:31:23;4.05;;;1.48;;
81523;SDS011;70954;49.500;10.416;2023-07-20T04:33:48;3.15;;;1.67;;
81523;SDS011;70954;49.500;10.416;2023-07-20T04:36:13;3.03;;;1.60;;
81523;SDS011;70954;49.500;10.416;2023-07-20T04:38:39;3.58;;;1.73;;
81523;SDS011;70954;49.500;10.416;2023-07-20T04:41:04;5.75;;;1.85;;
81523;SDS011;70954;49.500;10.416;2023-07-20T04:43:30;2.53;;;1.80;;
81523;SDS011;70954;49.500;10.416;2023-07-20T04:45:55;2.58;;;1.55;;
81523;SDS011;70954;49.500;10.416;2023-07-20T04:48:21;2.03;;;1.50;;
81523;SDS011;70954;49.500;10.416;2023-07-20T04:50:46;3.78;;;1.80;;
81523;SDS011;70954;49.500;10.416;2023-07-20T04:53:12;3.67;;;1.80;;
81523;SDS011;70954;49.500;10.416;2023-07-20T04:55:38;3.83;;;1.70;;
81523;SDS011;70954;49.500;10.416;2023-07-20T04:58:04;2.85;;;1.65;;
81523;SDS011;70954;49.500;10.416;2023-07-20T05:00:32;4.40;;;1.80;;
81523;SDS011;70954;49.500;10.416;2023-07-20T05:02:58;2.33;;;1.60;;
81523;SDS011;70954;49.500;10.416;2023-07-20T05:05:24;3.10;;;1.70;;
81523;SDS011;70954;49.500;10.416;2023-07-20T05:07:49;4.03;;;1.67;;
81523;SDS011;70954;49.500;10.416;2023-07-20T05:10:15;3.78;;;1.52;;
81523;SDS011;70954;49.500;10.416;2023-07-20T05:12:40;4.50;;;1.85;;
81523;SDS011;70954;49.500;10.416;2023-07-20T05:15:06;2.60;;;1.67;;
81523;SDS011;70954;49.500;10.416;2023-07-20T05:17:31;2.20;;;1.63;;
81523;SDS011;70954;49.500;10.416;2023-07-20T05:19:57;6.25;;;2.00;;
81523;SDS011;70954;49.500;10.416;2023-07-20T05:22:22;3.53;;;1.85;;
81523;SDS011;70954;49.500;10.416;2023-07-20T05:24:48;3.55;;;1.67;;
81523;SDS011;70954;49.500;10.416;2023-07-20T05:27:13;5.80;;;1.80;;
81523;SDS011;70954;49.500;10.416;2023-07-20T05:29:43;2.58;;;1.70;;
81523;SDS011;70954;49.500;10.416;2023-07-20T05:32:12;2.13;;;1.40;;
81523;SDS011;70954;49.500;10.416;2023-07-20T05:34:38;4.63;;;1.73;;
81523;SDS011;70954;49.500;10.416;2023-07-20T05:37:03;4.50;;;1.75;;
81523;SDS011;70954;49.500;10.416;2023-07-20T05:39:29;3.72;;;1.70;;
81523;SDS011;70954;49.500;10.416;2023-07-20T05:41:56;3.72;;;1.70;;
81523;SDS011;70954;49.500;10.416;2023-07-20T05:44:22;2.85;;;1.75;;
81523;SDS011;70954;49.500;10.416;2023-07-20T05:46:47;3.20;;;1.90;;
81523;SDS011;70954;49.500;10.416;2023-07-20T05:49:13;3.42;;;1.60;;
81523;SDS011;70954;49.500;10.416;2023-07-20T05:51:38;2.95;;;1.85;;
81523;SDS011;70954;49.500;10.416;2023-07-20T05:54:04;3.70;;;1.67;;
81523;SDS011;70954;49.500;10.416;2023-07-20T05:56:29;2.70;;;1.50;;
81523;SDS011;70954;49.500;10.416;2023-07-20T05:58:55;3.20;;;1.83;;
81523;SDS011;70954;49.500;10.416;2023-07-20T06:01:20;4.65;;;1.60;;
81523;SDS011;70954;49.500;10.416;2023-07-20T06:03:46;4.30;;;1.60;;
81523;SDS011;70954;49.500;10.416;2023-07-20T06:06:11;4.03;;;1.95;;
81523;SDS011;70954;49.500;10.416;2023-07-20T06:08:36;3.85;;;2.00;;
81523;SDS011;70954;49.500;10.416;2023-07-20T06:11:02;5.05;;;1.80;;
81523;SDS011;70954;49.500;10.416;2023-07-20T06:13:28;2.97;;;1.60;;
81523;SDS011;70954;49.500;10.416;2023-07-20T06:15:53;3.17;;;1.40;;
81523;SDS011;70954;49.500;10.416;2023-07-20T06:18:19;3.53;;;1.58;;
81523;SDS011;70954;49.500;10.416;2023-07-20T06:20:48;2.50;;;1.45;;
81523;SDS011;70954;49.500;10.416;2023-07-20T06:23:14;2.15;;;1.50;;
81523;SDS011;70954;49.500;10.416;2023-07-20T06:25:40;2.22;;;1.40;;
81523;SDS011;70954;49.500;10.416;2023-07-20T06:28:05;2.88;;;1.42;;
81523;SDS011;70954;49.500;10.416;2023-07-20T06:30:31;2.78;;;1.45;;
81523;SDS011;70954;49.500;10.416;2023-07-20T06:32:59;4.70;;;1.90;;
81523;SDS011;70954;49.500;10.416;2023-07-20T06:35:24;2.47;;;1.50;;
81523;SDS011;70954;49.500;10.416;2023-07-20T06:37:50;3.80;;;1.80;;
81523;SDS011;70954;49.500;10.416;2023-07-20T06:40:15;3.42;;;1.60;;
81523;SDS011;70954;49.500;10.416;2023-07-20T06:42:41;4.18;;;1.40;;
81523;SDS011;70954;49.500;10.416;2023-07-20T06:45:06;3.42;;;1.40;;
81523;SDS011;70954;49.500;10.416;2023-07-20T06:47:32;2.78;;;1.70;;
81523;SDS011;70954;49.500;10.416;2023-07-20T06:49:57;2.05;;;1.55;;
81523;SDS011;70954;49.500;10.416;2023-07-20T06:52:23;3.72;;;1.80;;
81523;SDS011;70954;49.500;10.416;2023-07-20T06:54:48;3.20;;;1.55;;
81523;SDS011;70954;49.500;10.416;2023-07-20T06:57:14;2.42;;;1.33;;
81523;SDS011;70954;49.500;10.416;2023-07-20T06:59:39;1.50;;;1.40;;
81523;SDS011;70954;49.500;10.416;2023-07-20T07:02:05;3.35;;;1.45;;
81523;SDS011;70954;49.500;10.416;2023-07-20T07:04:31;2.05;;;1.42;;
81523;SDS011;70954;49.500;10.416;2023-07-20T07:06:56;3.83;;;1.58;;
81523;SDS011;70954;49.500;10.416;2023-07-20T07:09:22;2.60;;;1.60;;
81523;SDS011;70954;49.500;10.416;2023-07-20T07:11:47;2.40;;;1.48;;
81523;SDS011;70954;49.500;10.416;2023-07-20T07:14:13;2.22;;;1.50;;
81523;SDS011;70954;49.500;10.416;2023-07-20T07:16:38;2.00;;;1.35;;
81523;SDS011;70954;49.500;10.416;2023-07-20T07:19:04;2.45;;;1.40;;
81523;SDS011;70954;49.500;10.416;2023-07-20T07:21:29;2.15;;;1.50;;
81523;SDS011;70954;49.500;10.416;2023-07-20T07:23:55;2.03;;;1.20;;
81523;SDS011;70954;49.500;10.416;2023-07-20T07:26:20;3.72;;;1.60;;
81523;SDS011;70954;49.500;10.416;2023-07-20T07:28:45;4.60;;;1.60;;
81523;SDS011;70954;49.500;10.416;2023-07-20T07:31:11;2.40;;;1.27;;
81523;SDS011;70954;49.500;10.416;2023-07-20T07:33:36;2.38;;;1.30;;
81523;SDS011;70954;49.500;10.416;2023-07-20T07:36:02;2.75;;;1.60;;
81523;SDS011;70954;49.500;10.416;2023-07-20T07:38:27;2.35;;;1.58;;
81523;SDS011;70954;49.500;10.416;2023-07-20T07:40:53;2.45;;;1.38;;
81523;SDS011;70954;49.500;10.416;2023-07-20T07:43:19;4.13;;;1.40;;
81523;SDS011;70954;49.500;10.416;2023-07-20T07:45:44;2.83;;;1.25;;
81523;SDS011;70954;49.500;10.416;2023-07-20T07:48:10;3.58;;;1.40;;
81523;SDS011;70954;49.500;10.416;2023-07-20T07:50:35;1.75;;;1.40;;
81523;SDS011;70954;49.500;10.416;2023-07-20T07:53:01;4.15;;;1.60;;
81523;SDS011;70954;49.500;10.416;2023-07-20T07:55:26;2.13;;;1.30;;
81523;SDS011;70954;49.500;10.416;2023-07-20T07:57:52;3.15;;;1.30;;
81523;SDS011;70954;49.500;10.416;2023-07-20T08:00:18;3.42;;;1.40;;
81523;SDS011;70954;49.500;10.416;2023-07-20T08:02:43;1.90;;;1.20;;
81523;SDS011;70954;49.500;10.416;2023-07-20T08:05:12;2.92;;;1.20;;
81523;SDS011;70954;49.500;10.416;2023-07-20T08:07:38;3.53;;;1.80;;
81523;SDS011;70954;49.500;10.416;2023-07-20T08:10:03;2.17;;;1.30;;
81523;SDS011;70954;49.500;10.416;2023-07-20T08:12:29;3.53;;;1.63;;
81523;SDS011;70954;49.500;10.416;2023-07-20T08:14:55;1.75;;;1.23;;
81523;SDS011;70954;49.500;10.416;2023-07-20T08:17:21;4.55;;;1.50;;
81523;SDS011;70954;49.500;10.416;2023-07-20T08:19:46;2.47;;;1.40;;
81523;SDS011;70954;49.500;10.416;2023-07-20T08:22:12;1.33;;;1.23;;
81523;SDS011;70954;49.500;10.416;2023-07-20T08:24:40;1.70;;;1.20;;
81523;SDS011;70954;49.500;10.416;2023-07-20T08:29:32;2.10;;;1.20;;
81523;SDS011;70954;49.500;10.416;2023-07-20T08:31:57;2.53;;;1.30;;
81523;SDS011;70954;49.500;10.416;2023-07-20T08:34:23;2.58;;;1.00;;
81523;SDS011;70954;49.500;10.416;2023-07-20T08:36:48;2.65;;;1.48;;
81523;SDS011;70954;49.500;10.416;2023-07-20T08:39:14;1.95;;;1.02;;
81523;SDS011;70954;49.500;10.416;2023-07-20T08:41:39;3.15;;;1.25;;
81523;SDS011;70954;49.500;10.416;2023-07-20T08:44:08;2.00;;;1.00;;
81523;SDS011;70954;49.500;10.416;2023-07-20T08:46:33;1.85;;;1.00;;
81523;SDS011;70954;49.500;10.416;2023-07-20T08:49:00;1.90;;;1.00;;
81523;SDS011;70954;49.500;10.416;2023-07-20T08:51:25;2.65;;;1.20;;
81523;SDS011;70954;49.500;10.416;2023-07-20T08:53:51;6.28;;;1.10;;
81523;SDS011;70954;49.500;10.416;2023-07-20T08:56:17;1.27;;;0.90;;
81523;SDS011;70954;49.500;10.416;2023-07-20T08:58:44;2.15;;;1.00;;
81523;SDS011;70954;49.500;10.416;2023-07-20T09:01:11;1.55;;;1.10;;
81523;SDS011;70954;49.500;10.416;2023-07-20T09:03:37;3.28;;;1.20;;
81523;SDS011;70954;49.500;10.416;2023-07-20T09:06:03;1.25;;;0.95;;
81523;SDS011;70954;49.500;10.416;2023-07-20T09:08:28;2.55;;;0.95;;
81523;SDS011;70954;49.500;10.416;2023-07-20T09:10:54;1.25;;;0.90;;
81523;SDS011;70954;49.500;10.416;2023-07-20T09:13:19;1.50;;;1.00;;
81523;SDS011;70954;49.500;10.416;2023-07-20T09:15:46;1.30;;;0.80;;
81523;SDS011;70954;49.500;10.416;2023-07-20T09:18:11;1.23;;;0.80;;
81523;SDS011;70954;49.500;10.416;2023-07-20T09:20:47;2.33;;;1.10;;
81523;SDS011;70954;49.500;10.416;2023-07-20T09:23:13;2.67;;;1.00;;
81523;SDS011;70954;49.500;10.416;2023-07-20T09:25:38;2.85;;;0.95;;
81523;SDS011;70954;49.500;10.416;2023-07-20T09:28:05;1.30;;;0.88;;
81523;SDS011;70954;49.500;10.416;2023-07-20T09:30:31;1.58;;;1.00;;
81523;SDS011;70954;49.500;10.416;2023-07-20T09:32:56;1.70;;;0.90;;
81523;SDS011;70954;49.500;10.416;2023-07-20T09:35:23;1.70;;;1.10;;
81523;SDS011;70954;49.500;10.416;2023-07-20T09:37:50;2.40;;;1.10;;
81523;SDS011;70954;49.500;10.416;2023-07-20T09:40:17;1.52;;;0.90;;
81523;SDS011;70954;49.500;10.416;2023-07-20T09:42:43;1.23;;;0.98;;
81523;SDS011;70954;49.500;10.416;2023-07-20T09:45:10;1.05;;;0.90;;
81523;SDS011;70954;49.500;10.416;2023-07-20T09:47:36;1.23;;;0.90;;
81523;SDS011;70954;49.500;10.416;2023-07-20T09:50:02;1.10;;;1.00;;
81523;SDS011;70954;49.500;10.416;2023-07-20T09:52:28;2.30;;;1.10;;
81523;SDS011;70954;49.500;10.416;2023-07-20T09:54:54;1.52;;;1.00;;
81523;SDS011;70954;49.500;10.416;2023-07-20T09:57:21;1.02;;;0.82;;
81523;SDS011;70954;49.500;10.416;2023-07-20T09:59:46;1.00;;;0.90;;
81523;SDS011;70954;49.500;10.416;2023-07-20T10:02:23;1.38;;;0.90;;
81523;SDS011;70954;49.500;10.416;2023-07-20T10:04:55;3.00;;;0.93;;
81523;SDS011;70954;49.500;10.416;2023-07-20T10:07:23;1.92;;;1.00;;
81523;SDS011;70954;49.500;10.416;2023-07-20T10:09:54;2.08;;;1.10;;
81523;SDS011;70954;49.500;10.416;2023-07-20T10:12:22;1.67;;;1.02;;
81523;SDS011;70954;49.500;10.416;2023-07-20T10:14:59;1.55;;;0.90;;
81523;SDS011;70954;49.500;10.416;2023-07-20T10:17:36;0.88;;;0.75;;
81523;SDS011;70954;49.500;10.416;2023-07-20T10:20:05;1.30;;;0.80;;
81523;SDS011;70954;49.500;10.416;2023-07-20T10:22:34;1.40;;;0.82;;
81523;SDS011;70954;49.500;10.416;2023-07-20T10:25:01;4.35;;;1.30;;
81523;SDS011;70954;49.500;10.416;2023-07-20T10:27:27;1.40;;;0.90;;
81523;SDS011;70954;49.500;10.416;2023-07-20T10:29:53;1.60;;;0.80;;
81523;SDS011;70954;49.500;10.416;2023-07-20T10:32:19;0.90;;;0.80;;
81523;SDS011;70954;49.500;10.416;2023-07-20T10:34:51;1.00;;;0.90;;
81523;SDS011;70954;49.500;10.416;2023-07-20T10:45:40;1.58;;;0.80;;
81523;SDS011;70954;49.500;10.416;2023-07-20T10:48:06;1.98;;;0.80;;
81523;SDS011;70954;49.500;10.416;2023-07-20T10:50:43;1.42;;;0.65;;
81523;SDS011;70954;49.500;10.416;2023-07-20T10:53:12;0.95;;;0.70;;
81523;SDS011;70954;49.500;10.416;2023-07-20T10:55:41;0.90;;;0.70;;
81523;SDS011;70954;49.500;10.416;2023-07-20T10:58:11;1.48;;;1.02;;
81523;SDS011;70954;49.500;10.416;2023-07-20T11:00:36;1.80;;;1.17;;
81523;SDS011;70954;49.500;10.416;2023-07-20T11:03:03;1.67;;;0.93;;
81523;SDS011;70954;49.500;10.416;2023-07-20T11:05:33;1.27;;;1.00;;
81523;SDS011;70954;49.500;10.416;2023-07-20T11:07:59;1.80;;;1.10;;
81523;SDS011;70954;49.500;10.416;2023-07-20T11:10:25;0.90;;;0.60;;
81523;SDS011;70954;49.500;10.416;2023-07-20T11:15:44;0.88;;;0.80;;
81523;SDS011;70954;49.500;10.416;2023-07-20T11:18:30;0.93;;;0.82;;
81523;SDS011;70954;49.500;10.416;2023-07-20T11:20:58;1.85;;;1.00;;
81523;SDS011;70954;49.500;10.416;2023-07-20T11:23:24;1.60;;;1.08;;
81523;SDS011;70954;49.500;10.416;2023-07-20T11:25:49;1.23;;;0.98;;
81523;SDS011;70954;49.500;10.416;2023-07-20T11:28:15;1.40;;;1.15;;
81523;SDS011;70954;49.500;10.416;2023-07-20T11:30:40;1.00;;;0.90;;
81523;SDS011;70954;49.500;10.416;2023-07-20T11:33:09;1.55;;;1.02;;
81523;SDS011;70954;49.500;10.416;2023-07-20T11:35:35;1.10;;;0.73;;
81523;SDS011;70954;49.500;10.416;2023-07-20T11:38:06;2.78;;;0.90;;
81523;SDS011;70954;49.500;10.416;2023-07-20T11:40:32;2.42;;;1.00;;
81523;SDS011;70954;49.500;10.416;2023-07-20T11:42:57;1.60;;;1.00;;
81523;SDS011;70954;49.500;10.416;2023-07-20T11:45:23;2.13;;;0.82;;
81523;SDS011;70954;49.500;10.416;2023-07-20T11:47:48;0.98;;;0.88;;
81523;SDS011;70954;49.500;10.416;2023-07-20T11:50:14;2.03;;;1.00;;
81523;SDS011;70954;49.500;10.416;2023-07-20T11:52:40;1.60;;;0.90;;
81523;SDS011;70954;49.500;10.416;2023-07-20T11:55:06;1.83;;;0.90;;
81523;SDS011;70954;49.500;10.416;2023-07-20T11:57:32;1.05;;;0.90;;
81523;SDS011;70954;49.500;10.416;2023-07-20T12:00:00;1.83;;;0.90;;
81523;SDS011;70954;49.500;10.416;2023-07-20T12:02:27;1.65;;;0.70;;
81523;SDS011;70954;49.500;10.416;2023-07-20T12:04:53;1.30;;;0.93;;
81523;SDS011;70954;49.500;10.416;2023-07-20T12:07:20;1.98;;;0.90;;
81523;SDS011;70954;49.500;10.416;2023-07-20T12:10:05;0.98;;;0.80;;
81523;SDS011;70954;49.500;10.416;2023-07-20T12:12:41;1.00;;;0.90;;
81523;SDS011;70954;49.500;10.416;2023-07-20T12:15:14;1.70;;;0.80;;
81523;SDS011;70954;49.500;10.416;2023-07-20T12:17:51;0.77;;;0.77;;
81523;SDS011;70954;49.500;10.416;2023-07-20T12:20:25;1.15;;;0.90;;
81523;SDS011;70954;49.500;10.416;2023-07-20T12:22:55;1.73;;;0.82;;
81523;SDS011;70954;49.500;10.416;2023-07-20T12:28:13;0.88;;;0.80;;
81523;SDS011;70954;49.500;10.416;2023-07-20T12:30:40;1.52;;;0.98;;
81523;SDS011;70954;49.500;10.416;2023-07-20T12:33:07;1.58;;;0.75;;
81523;SDS011;70954;49.500;10.416;2023-07-20T12:35:33;1.50;;;0.80;;
81523;SDS011;70954;49.500;10.416;2023-07-20T12:37:59;1.13;;;0.80;;
81523;SDS011;70954;49.500;10.416;2023-07-20T12:40:25;1.23;;;0.80;;
81523;SDS011;70954;49.500;10.416;2023-07-20T12:42:51;0.95;;;0.90;;
81523;SDS011;70954;49.500;10.416;2023-07-20T12:45:16;1.05;;;0.82;;
81523;SDS011;70954;49.500;10.416;2023-07-20T12:47:42;1.33;;;0.88;;
81523;SDS011;70954;49.500;10.416;2023-07-20T12:50:08;1.33;;;0.95;;
81523;SDS011;70954;49.500;10.416;2023-07-20T12:52:36;0.98;;;0.77;;
81523;SDS011;70954;49.500;10.416;2023-07-20T12:55:02;1.15;;;0.90;;
81523;SDS011;70954;49.500;10.416;2023-07-20T12:57:28;0.80;;;0.77;;
81523;SDS011;70954;49.500;10.416;2023-07-20T12:59:53;1.92;;;0.88;;
81523;SDS011;70954;49.500;10.416;2023-07-20T13:02:18;1.00;;;0.80;;
81523;SDS011;70954;49.500;10.416;2023-07-20T13:04:44;1.23;;;0.80;;
81523;SDS011;70954;49.500;10.416;2023-07-20T13:07:10;2.83;;;0.90;;
81523;SDS011;70954;49.500;10.416;2023-07-20T13:09:35;1.27;;;0.80;;
81523;SDS011;70954;49.500;10.416;2023-07-20T13:12:01;2.00;;;1.13;;
81523;SDS011;70954;49.500;10.416;2023-07-20T13:14:26;0.80;;;0.80;;
81523;SDS011;70954;49.500;10.416;2023-07-20T13:16:52;0.80;;;0.70;;
81523;SDS011;70954;49.500;10.416;2023-07-20T13:19:17;0.85;;;0.80;;
81523;SDS011;70954;49.500;10.416;2023-07-20T13:21:42;1.05;;;0.88;;
81523;SDS011;70954;49.500;10.416;2023-07-20T13:24:08;1.00;;;0.88;;
81523;SDS011;70954;49.500;10.416;2023-07-20T13:26:33;0.88;;;0.73;;
81523;SDS011;70954;49.500;10.416;2023-07-20T13:28:59;0.70;;;0.70;;
81523;SDS011;70954;49.500;10.416;2023-07-20T13:31:24;0.77;;;0.70;;
81523;SDS011;70954;49.500;10.416;2023-07-20T13:33:50;1.65;;;0.93;;
81523;SDS011;70954;49.500;10.416;2023-07-20T13:36:15;1.02;;;0.93;;
81523;SDS011;70954;49.500;10.416;2023-07-20T13:38:41;1.55;;;0.90;;
81523;SDS011;70954;49.500;10.416;2023-07-20T13:41:06;1.08;;;0.70;;
81523;SDS011;70954;49.500;10.416;2023-07-20T13:43:31;2.10;;;1.02;;
81523;SDS011;70954;49.500;10.416;2023-07-20T13:45:57;1.40;;;0.85;;
81523;SDS011;70954;49.500;10.416;2023-07-20T13:48:22;2.00;;;1.00;;
81523;SDS011;70954;49.500;10.416;2023-07-20T13:50:48;1.98;;;0.95;;
81523;SDS011;70954;49.500;10.416;2023-07-20T13:53:13;1.65;;;0.90;;
81523;SDS011;70954;49.500;10.416;2023-07-20T13:55:39;1.90;;;1.00;;
81523;SDS011;70954;49.500;10.416;2023-07-20T13:58:04;1.02;;;0.80;;
81523;SDS011;70954;49.500;10.416;2023-07-20T14:00:30;1.58;;;0.80;;
81523;SDS011;70954;49.500;10.416;2023-07-20T14:02:55;1.20;;;0.80;;
81523;SDS011;70954;49.500;10.416;2023-07-20T14:05:21;1.00;;;0.75;;
81523;SDS011;70954;49.500;10.416;2023-07-20T14:07:46;1.33;;;0.90;;
81523;SDS011;70954;49.500;10.416;2023-07-20T14:10:12;0.90;;;0.80;;
81523;SDS011;70954;49.500;10.416;2023-07-20T14:12:37;0.82;;;0.80;;
81523;SDS011;70954;49.500;10.416;2023-07-20T14:15:03;2.67;;;0.70;;
81523;SDS011;70954;49.500;10.416;2023-07-20T14:17:29;1.17;;;0.90;;
81523;SDS011;70954;49.500;10.416;2023-07-20T14:19:54;2.90;;;0.77;;
81523;SDS011;70954;49.500;10.416;2023-07-20T14:22:20;0.90;;;0.80;;
81523;SDS011;70954;49.500;10.416;2023-07-20T14:24:45;1.15;;;0.75;;
81523;SDS011;70954;49.500;10.416;2023-07-20T14:27:10;1.33;;;0.90;;
81523;SDS011;70954;49.500;10.416;2023-07-20T14:29:36;1.60;;;0.90;;
81523;SDS011;70954;49.500;10.416;2023-07-20T14:32:01;1.00;;;0.73;;
81523;SDS011;70954;49.500;10.416;2023-07-20T14:34:27;1.30;;;0.90;;
81523;SDS011;70954;49.500;10.416;2023-07-20T14:36:52;1.13;;;0.80;;
81523;SDS011;70954;49.500;10.416;2023-07-20T14:39:18;1.17;;;0.77;;
81523;SDS011;70954;49.500;10.416;2023-07-20T14:41:43;1.30;;;0.90;;
81523;SDS011;70954;49.500;10.416;2023-07-20T14:44:09;0.73;;;0.70;;
81523;SDS011;70954;49.500;10.416;2023-07-20T14:46:34;0.88;;;0.80;;
81523;SDS011;70954;49.500;10.416;2023-07-20T14:49:00;0.93;;;0.80;;
81523;SDS011;70954;49.500;10.416;2023-07-20T14:51:25;0.93;;;0.60;;
81523;SDS011;70954;49.500;10.416;2023-07-20T14:53:51;1.02;;;0.75;;